sensor_id;sensor_type;location;lat;lon;timestamp;P1;durP1;ratioP1;P2;durP2;ratioP2
6209;SDS011;3138;52.550;13.148;2023-04-15T00:00:14;49.97;;;32.37;;
6209;SDS011;3138;52.550;13.148;2023-04-15T00:02:41;55.20;;;32.90;;
6209;SDS011;3138;52.550;13.148;2023-04-15T00:05:09;51.57;;;31.97;;
6209;SDS011;3138;52.550;13.148;2023-04-15T00:07:36;56.77;;;34.07;;
6209;SDS011;3138;52.550;13.148;2023-04-15T00:10:06;56.17;;;33.83;;
6209;SDS011;3138;52.550;13.148;2023-04-15T00:12:33;66.30;;;35.70;;
6209;SDS011;3138;52.550;13.148;2023-04-15T00:15:00;57.80;;;34.10;;
6209;SDS011;3138;52.550;13.148;2023-04-15T00:17:28;64.13;;;36.83;;
6209;SDS011;3138;52.550;13.148;2023-04-15T00:19:55;59.33;;;35.60;;
6209;SDS011;3138;52.550;13.148;2023-04-15T00:22:23;68.90;;;36.43;;
6209;SDS011;3138;52.550;13.148;2023-04-15T00:24:51;60.27;;;35.37;;
6209;SDS011;3138;52.550;13.148;2023-04-15T00:27:19;63.57;;;36.70;;
6209;SDS011;3138;52.550;13.148;2023-04-15T00:29:46;64.27;;;37.07;;
6209;SDS011;3138;52.550;13.148;2023-04-15T00:32:13;65.40;;;39.10;;
6209;SDS011;3138;52.550;13.148;2023-04-15T00:34:40;75.50;;;37.60;;
6209;SDS011;3138;52.550;13.148;2023-04-15T00:37:07;69.30;;;39.27;;
6209;SDS011;3138;52.550;13.148;2023-04-15T00:39:34;63.33;;;37.00;;
6209;SDS011;3138;52.550;13.148;2023-04-15T00:42:01;71.90;;;39.57;;
6209;SDS011;3138;52.550;13.148;2023-04-15T00:44:31;66.70;;;39.60;;
6209;SDS011;3138;52.550;13.148;2023-04-15T00:46:59;69.37;;;39.27;;
6209;SDS011;3138;52.550;13.148;2023-04-15T00:49:26;67.50;;;38.47;;
6209;SDS011;3138;52.550;13.148;2023-04-15T00:51:54;68.27;;;39.07;;
6209;SDS011;3138;52.550;13.148;2023-04-15T00:54:21;74.97;;;41.50;;
6209;SDS011;3138;52.550;13.148;2023-04-15T00:56:48;72.53;;;39.80;;
6209;SDS011;3138;52.550;13.148;2023-04-15T00:59:15;77.03;;;42.47;;
6209;SDS011;3138;52.550;13.148;2023-04-15T01:01:45;73.90;;;42.37;;
6209;SDS011;3138;52.550;13.148;2023-04-15T01:04:12;79.50;;;45.13;;
6209;SDS011;3138;52.550;13.148;2023-04-15T01:06:39;73.47;;;42.00;;
6209;SDS011;3138;52.550;13.148;2023-04-15T01:09:06;74.10;;;41.67;;
6209;SDS011;3138;52.550;13.148;2023-04-15T01:11:33;82.57;;;45.90;;
6209;SDS011;3138;52.550;13.148;2023-04-15T01:14:00;73.53;;;41.40;;
6209;SDS011;3138;52.550;13.148;2023-04-15T01:16:28;80.87;;;43.47;;
6209;SDS011;3138;52.550;13.148;2023-04-15T01:18:56;84.53;;;43.57;;
6209;SDS011;3138;52.550;13.148;2023-04-15T01:21:23;78.87;;;44.13;;
6209;SDS011;3138;52.550;13.148;2023-04-15T01:23:50;86.60;;;44.53;;
6209;SDS011;3138;52.550;13.148;2023-04-15T01:26:22;85.73;;;45.40;;
6209;SDS011;3138;52.550;13.148;2023-04-15T01:28:49;83.67;;;44.40;;
6209;SDS011;3138;52.550;13.148;2023-04-15T01:31:15;85.17;;;44.47;;
6209;SDS011;3138;52.550;13.148;2023-04-15T01:33:42;82.70;;;43.87;;
6209;SDS011;3138;52.550;13.148;2023-04-15T01:36:09;79.00;;;41.33;;
6209;SDS011;3138;52.550;13.148;2023-04-15T01:38:36;96.73;;;47.03;;
6209;SDS011;3138;52.550;13.148;2023-04-15T01:41:03;88.07;;;43.10;;
6209;SDS011;3138;52.550;13.148;2023-04-15T01:43:33;92.90;;;46.30;;
6209;SDS011;3138;52.550;13.148;2023-04-15T01:46:00;85.90;;;45.13;;
6209;SDS011;3138;52.550;13.148;2023-04-15T01:48:27;101.70;;;48.30;;
6209;SDS011;3138;52.550;13.148;2023-04-15T01:50:54;85.13;;;46.50;;
6209;SDS011;3138;52.550;13.148;2023-04-15T01:53:22;85.13;;;45.10;;
6209;SDS011;3138;52.550;13.148;2023-04-15T01:55:49;96.47;;;47.50;;
6209;SDS011;3138;52.550;13.148;2023-04-15T01:58:16;92.40;;;47.40;;
6209;SDS011;3138;52.550;13.148;2023-04-15T02:00:45;92.00;;;46.00;;
6209;SDS011;3138;52.550;13.148;2023-04-15T02:03:12;81.87;;;44.90;;
6209;SDS011;3138;52.550;13.148;2023-04-15T02:05:38;87.47;;;46.37;;
6209;SDS011;3138;52.550;13.148;2023-04-15T02:08:05;97.57;;;48.87;;
6209;SDS011;3138;52.550;13.148;2023-04-15T02:10:32;94.77;;;46.13;;
6209;SDS011;3138;52.550;13.148;2023-04-15T02:12:59;96.00;;;48.83;;
6209;SDS011;3138;52.550;13.148;2023-04-15T02:15:26;105.10;;;49.67;;
6209;SDS011;3138;52.550;13.148;2023-04-15T02:17:55;105.83;;;49.30;;
6209;SDS011;3138;52.550;13.148;2023-04-15T02:20:23;104.33;;;50.37;;
6209;SDS011;3138;52.550;13.148;2023-04-15T02:22:50;102.87;;;49.07;;
6209;SDS011;3138;52.550;13.148;2023-04-15T02:25:17;102.90;;;50.60;;
6209;SDS011;3138;52.550;13.148;2023-04-15T02:27:44;101.03;;;47.37;;
6209;SDS011;3138;52.550;13.148;2023-04-15T02:30:11;95.67;;;48.30;;
6209;SDS011;3138;52.550;13.148;2023-04-15T02:32:38;101.53;;;48.47;;
6209;SDS011;3138;52.550;13.148;2023-04-15T02:35:09;101.90;;;50.90;;
6209;SDS011;3138;52.550;13.148;2023-04-15T02:37:36;104.40;;;50.43;;
6209;SDS011;3138;52.550;13.148;2023-04-15T02:40:07;100.20;;;48.83;;
6209;SDS011;3138;52.550;13.148;2023-04-15T02:42:36;102.60;;;48.47;;
6209;SDS011;3138;52.550;13.148;2023-04-15T02:45:03;98.87;;;49.97;;
6209;SDS011;3138;52.550;13.148;2023-04-15T02:47:31;93.10;;;48.53;;
6209;SDS011;3138;52.550;13.148;2023-04-15T02:49:58;107.60;;;51.70;;
6209;SDS011;3138;52.550;13.148;2023-04-15T02:52:27;109.63;;;51.30;;
6209;SDS011;3138;52.550;13.148;2023-04-15T02:54:54;106.83;;;51.47;;
6209;SDS011;3138;52.550;13.148;2023-04-15T02:57:24;103.90;;;50.80;;
6209;SDS011;3138;52.550;13.148;2023-04-15T02:59:51;113.60;;;52.00;;
6209;SDS011;3138;52.550;13.148;2023-04-15T03:02:18;103.27;;;52.23;;
6209;SDS011;3138;52.550;13.148;2023-04-15T03:04:45;108.27;;;50.87;;
6209;SDS011;3138;52.550;13.148;2023-04-15T03:07:12;109.73;;;52.00;;
6209;SDS011;3138;52.550;13.148;2023-04-15T03:09:41;109.83;;;51.63;;
6209;SDS011;3138;52.550;13.148;2023-04-15T03:12:08;101.37;;;49.70;;
6209;SDS011;3138;52.550;13.148;2023-04-15T03:14:35;115.53;;;52.90;;
6209;SDS011;3138;52.550;13.148;2023-04-15T03:17:02;102.43;;;50.63;;
6209;SDS011;3138;52.550;13.148;2023-04-15T03:19:29;102.90;;;49.83;;
6209;SDS011;3138;52.550;13.148;2023-04-15T03:21:55;104.80;;;51.77;;
6209;SDS011;3138;52.550;13.148;2023-04-15T03:24:22;98.57;;;47.87;;
6209;SDS011;3138;52.550;13.148;2023-04-15T03:26:51;99.27;;;51.30;;
6209;SDS011;3138;52.550;13.148;2023-04-15T03:29:19;110.77;;;51.30;;
6209;SDS011;3138;52.550;13.148;2023-04-15T03:31:46;107.20;;;53.10;;
6209;SDS011;3138;52.550;13.148;2023-04-15T03:34:12;98.97;;;49.50;;
6209;SDS011;3138;52.550;13.148;2023-04-15T03:36:39;110.03;;;51.20;;
6209;SDS011;3138;52.550;13.148;2023-04-15T03:39:06;98.93;;;49.13;;
6209;SDS011;3138;52.550;13.148;2023-04-15T03:41:33;109.67;;;50.77;;
6209;SDS011;3138;52.550;13.148;2023-04-15T03:44:01;107.17;;;54.13;;
6209;SDS011;3138;52.550;13.148;2023-04-15T03:46:28;103.07;;;51.90;;
6209;SDS011;3138;52.550;13.148;2023-04-15T03:48:55;114.80;;;52.00;;
6209;SDS011;3138;52.550;13.148;2023-04-15T03:51:22;115.90;;;52.80;;
6209;SDS011;3138;52.550;13.148;2023-04-15T03:53:49;115.30;;;53.60;;
6209;SDS011;3138;52.550;13.148;2023-04-15T03:56:16;105.60;;;49.97;;
6209;SDS011;3138;52.550;13.148;2023-04-15T03:58:43;111.20;;;50.60;;
6209;SDS011;3138;52.550;13.148;2023-04-15T04:01:11;101.97;;;48.03;;
6209;SDS011;3138;52.550;13.148;2023-04-15T04:03:38;105.70;;;52.13;;
6209;SDS011;3138;52.550;13.148;2023-04-15T04:06:05;100.40;;;50.93;;
6209;SDS011;3138;52.550;13.148;2023-04-15T04:08:32;117.47;;;47.87;;
6209;SDS011;3138;52.550;13.148;2023-04-15T04:10:59;120.77;;;54.40;;
6209;SDS011;3138;52.550;13.148;2023-04-15T04:13:26;90.60;;;47.57;;
6209;SDS011;3138;52.550;13.148;2023-04-15T04:15:52;110.53;;;49.97;;
6209;SDS011;3138;52.550;13.148;2023-04-15T04:18:21;111.83;;;52.13;;
6209;SDS011;3138;52.550;13.148;2023-04-15T04:20:48;91.30;;;46.07;;
6209;SDS011;3138;52.550;13.148;2023-04-15T04:23:14;95.50;;;48.27;;
6209;SDS011;3138;52.550;13.148;2023-04-15T04:25:41;99.53;;;47.93;;
6209;SDS011;3138;52.550;13.148;2023-04-15T04:28:08;93.37;;;48.00;;
6209;SDS011;3138;52.550;13.148;2023-04-15T04:30:35;105.80;;;48.70;;
6209;SDS011;3138;52.550;13.148;2023-04-15T04:33:02;97.77;;;48.17;;
6209;SDS011;3138;52.550;13.148;2023-04-15T04:35:30;96.47;;;47.53;;
6209;SDS011;3138;52.550;13.148;2023-04-15T04:37:58;90.00;;;48.10;;
6209;SDS011;3138;52.550;13.148;2023-04-15T04:40:25;101.10;;;48.60;;
6209;SDS011;3138;52.550;13.148;2023-04-15T04:42:52;94.50;;;48.23;;
6209;SDS011;3138;52.550;13.148;2023-04-15T04:45:19;101.07;;;47.00;;
6209;SDS011;3138;52.550;13.148;2023-04-15T04:47:46;100.93;;;48.27;;
6209;SDS011;3138;52.550;13.148;2023-04-15T04:50:13;100.33;;;48.00;;
6209;SDS011;3138;52.550;13.148;2023-04-15T04:52:42;93.50;;;45.87;;
6209;SDS011;3138;52.550;13.148;2023-04-15T04:55:08;101.10;;;47.37;;
6209;SDS011;3138;52.550;13.148;2023-04-15T04:57:35;92.43;;;47.77;;
6209;SDS011;3138;52.550;13.148;2023-04-15T05:00:04;88.10;;;45.57;;
6209;SDS011;3138;52.550;13.148;2023-04-15T05:02:32;87.27;;;41.67;;
6209;SDS011;3138;52.550;13.148;2023-04-15T05:05:00;78.57;;;41.50;;
6209;SDS011;3138;52.550;13.148;2023-04-15T05:07:26;83.50;;;42.70;;
6209;SDS011;3138;52.550;13.148;2023-04-15T05:09:55;87.43;;;44.90;;
6209;SDS011;3138;52.550;13.148;2023-04-15T05:12:22;87.30;;;43.70;;
6209;SDS011;3138;52.550;13.148;2023-04-15T05:14:48;75.17;;;42.43;;
6209;SDS011;3138;52.550;13.148;2023-04-15T05:17:15;83.70;;;43.07;;
6209;SDS011;3138;52.550;13.148;2023-04-15T05:19:42;88.73;;;43.97;;
6209;SDS011;3138;52.550;13.148;2023-04-15T05:22:09;78.77;;;41.97;;
6209;SDS011;3138;52.550;13.148;2023-04-15T05:24:36;89.33;;;43.20;;
6209;SDS011;3138;52.550;13.148;2023-04-15T05:27:04;86.53;;;43.30;;
6209;SDS011;3138;52.550;13.148;2023-04-15T05:29:32;73.67;;;41.53;;
6209;SDS011;3138;52.550;13.148;2023-04-15T05:31:59;74.50;;;42.50;;
6209;SDS011;3138;52.550;13.148;2023-04-15T05:34:26;79.17;;;40.50;;
6209;SDS011;3138;52.550;13.148;2023-04-15T05:36:53;78.03;;;41.93;;
6209;SDS011;3138;52.550;13.148;2023-04-15T05:39:20;76.80;;;40.47;;
6209;SDS011;3138;52.550;13.148;2023-04-15T05:41:47;77.10;;;42.30;;
6209;SDS011;3138;52.550;13.148;2023-04-15T05:44:15;68.20;;;37.33;;
6209;SDS011;3138;52.550;13.148;2023-04-15T05:46:42;67.30;;;39.10;;
6209;SDS011;3138;52.550;13.148;2023-04-15T05:49:08;63.93;;;36.40;;
6209;SDS011;3138;52.550;13.148;2023-04-15T05:51:36;72.07;;;39.97;;
6209;SDS011;3138;52.550;13.148;2023-04-15T05:54:02;64.33;;;38.10;;
6209;SDS011;3138;52.550;13.148;2023-04-15T05:56:29;73.20;;;38.13;;
6209;SDS011;3138;52.550;13.148;2023-04-15T05:58:56;62.87;;;37.43;;
6209;SDS011;3138;52.550;13.148;2023-04-15T06:01:24;65.23;;;38.13;;
6209;SDS011;3138;52.550;13.148;2023-04-15T06:03:51;67.03;;;36.23;;
6209;SDS011;3138;52.550;13.148;2023-04-15T06:06:18;60.83;;;36.10;;
6209;SDS011;3138;52.550;13.148;2023-04-15T06:08:45;57.33;;;34.70;;
6209;SDS011;3138;52.550;13.148;2023-04-15T06:11:12;57.13;;;31.73;;
6209;SDS011;3138;52.550;13.148;2023-04-15T06:13:39;68.87;;;33.80;;
6209;SDS011;3138;52.550;13.148;2023-04-15T06:16:06;66.73;;;34.10;;
6209;SDS011;3138;52.550;13.148;2023-04-15T06:18:34;60.13;;;34.57;;
6209;SDS011;3138;52.550;13.148;2023-04-15T06:21:01;58.20;;;36.33;;
6209;SDS011;3138;52.550;13.148;2023-04-15T06:23:28;52.97;;;30.67;;
6209;SDS011;3138;52.550;13.148;2023-04-15T06:25:55;49.67;;;31.13;;
6209;SDS011;3138;52.550;13.148;2023-04-15T06:28:22;47.80;;;30.30;;
6209;SDS011;3138;52.550;13.148;2023-04-15T06:30:48;50.93;;;31.00;;
6209;SDS011;3138;52.550;13.148;2023-04-15T06:33:15;52.30;;;29.93;;
6209;SDS011;3138;52.550;13.148;2023-04-15T06:35:43;40.33;;;26.73;;
6209;SDS011;3138;52.550;13.148;2023-04-15T06:38:11;45.27;;;30.07;;
6209;SDS011;3138;52.550;13.148;2023-04-15T06:40:38;45.00;;;28.30;;
6209;SDS011;3138;52.550;13.148;2023-04-15T06:43:05;48.90;;;27.17;;
6209;SDS011;3138;52.550;13.148;2023-04-15T06:45:33;44.33;;;28.03;;
6209;SDS011;3138;52.550;13.148;2023-04-15T06:48:00;44.23;;;25.87;;
6209;SDS011;3138;52.550;13.148;2023-04-15T06:50:27;41.80;;;27.37;;
6209;SDS011;3138;52.550;13.148;2023-04-15T06:52:55;45.57;;;26.00;;
6209;SDS011;3138;52.550;13.148;2023-04-15T06:55:22;32.87;;;23.67;;
6209;SDS011;3138;52.550;13.148;2023-04-15T06:57:49;38.13;;;24.50;;
6209;SDS011;3138;52.550;13.148;2023-04-15T07:00:16;29.80;;;21.00;;
6209;SDS011;3138;52.550;13.148;2023-04-15T07:02:43;32.33;;;21.93;;
6209;SDS011;3138;52.550;13.148;2023-04-15T07:05:10;30.80;;;21.63;;
6209;SDS011;3138;52.550;13.148;2023-04-15T07:07:37;33.83;;;21.47;;
6209;SDS011;3138;52.550;13.148;2023-04-15T07:10:06;38.07;;;19.53;;
6209;SDS011;3138;52.550;13.148;2023-04-15T07:12:34;34.93;;;19.87;;
6209;SDS011;3138;52.550;13.148;2023-04-15T07:15:00;23.70;;;19.00;;
6209;SDS011;3138;52.550;13.148;2023-04-15T07:17:27;29.83;;;19.73;;
6209;SDS011;3138;52.550;13.148;2023-04-15T07:19:54;24.50;;;17.50;;
6209;SDS011;3138;52.550;13.148;2023-04-15T07:22:21;21.57;;;16.40;;
6209;SDS011;3138;52.550;13.148;2023-04-15T07:24:48;24.77;;;17.67;;
6209;SDS011;3138;52.550;13.148;2023-04-15T07:27:16;28.53;;;18.60;;
6209;SDS011;3138;52.550;13.148;2023-04-15T07:29:43;25.77;;;19.07;;
6209;SDS011;3138;52.550;13.148;2023-04-15T07:32:10;25.80;;;16.47;;
6209;SDS011;3138;52.550;13.148;2023-04-15T07:34:37;30.00;;;18.20;;
6209;SDS011;3138;52.550;13.148;2023-04-15T07:37:03;24.93;;;16.30;;
6209;SDS011;3138;52.550;13.148;2023-04-15T07:39:30;24.90;;;17.47;;
6209;SDS011;3138;52.550;13.148;2023-04-15T07:41:57;27.00;;;14.93;;
6209;SDS011;3138;52.550;13.148;2023-04-15T07:44:25;25.00;;;16.90;;
6209;SDS011;3138;52.550;13.148;2023-04-15T07:46:52;25.20;;;17.00;;
6209;SDS011;3138;52.550;13.148;2023-04-15T07:49:20;24.70;;;16.53;;
6209;SDS011;3138;52.550;13.148;2023-04-15T07:51:47;22.10;;;17.07;;
6209;SDS011;3138;52.550;13.148;2023-04-15T07:54:14;22.57;;;17.87;;
6209;SDS011;3138;52.550;13.148;2023-04-15T07:56:41;29.37;;;17.90;;
6209;SDS011;3138;52.550;13.148;2023-04-15T07:59:08;28.40;;;17.90;;
6209;SDS011;3138;52.550;13.148;2023-04-15T08:01:37;22.90;;;17.50;;
6209;SDS011;3138;52.550;13.148;2023-04-15T08:04:04;23.00;;;16.80;;
6209;SDS011;3138;52.550;13.148;2023-04-15T08:06:31;27.57;;;18.80;;
6209;SDS011;3138;52.550;13.148;2023-04-15T08:08:58;37.83;;;17.27;;
6209;SDS011;3138;52.550;13.148;2023-04-15T08:11:25;30.43;;;18.60;;
6209;SDS011;3138;52.550;13.148;2023-04-15T08:13:52;32.80;;;17.67;;
6209;SDS011;3138;52.550;13.148;2023-04-15T08:16:20;22.13;;;16.20;;
6209;SDS011;3138;52.550;13.148;2023-04-15T08:18:50;27.73;;;17.60;;
6209;SDS011;3138;52.550;13.148;2023-04-15T08:21:18;26.80;;;16.87;;
6209;SDS011;3138;52.550;13.148;2023-04-15T08:23:46;28.17;;;20.60;;
6209;SDS011;3138;52.550;13.148;2023-04-15T08:26:14;25.77;;;18.80;;
6209;SDS011;3138;52.550;13.148;2023-04-15T08:28:44;24.00;;;17.07;;
6209;SDS011;3138;52.550;13.148;2023-04-15T08:31:11;23.67;;;18.40;;
6209;SDS011;3138;52.550;13.148;2023-04-15T08:33:39;29.73;;;17.60;;
6209;SDS011;3138;52.550;13.148;2023-04-15T08:36:07;23.00;;;17.77;;
6209;SDS011;3138;52.550;13.148;2023-04-15T08:38:34;25.33;;;15.97;;
6209;SDS011;3138;52.550;13.148;2023-04-15T08:41:02;28.63;;;18.83;;
6209;SDS011;3138;52.550;13.148;2023-04-15T08:43:34;28.37;;;18.73;;
6209;SDS011;3138;52.550;13.148;2023-04-15T08:46:04;23.10;;;16.83;;
6209;SDS011;3138;52.550;13.148;2023-04-15T08:48:32;27.43;;;18.37;;
6209;SDS011;3138;52.550;13.148;2023-04-15T08:50:59;24.10;;;17.87;;
6209;SDS011;3138;52.550;13.148;2023-04-15T08:53:29;24.93;;;18.13;;
6209;SDS011;3138;52.550;13.148;2023-04-15T08:55:56;27.33;;;18.73;;
6209;SDS011;3138;52.550;13.148;2023-04-15T08:58:29;22.90;;;16.90;;
6209;SDS011;3138;52.550;13.148;2023-04-15T09:00:56;28.90;;;18.97;;
6209;SDS011;3138;52.550;13.148;2023-04-15T09:03:24;24.93;;;16.80;;
6209;SDS011;3138;52.550;13.148;2023-04-15T09:05:51;26.80;;;18.07;;
6209;SDS011;3138;52.550;13.148;2023-04-15T09:08:18;24.10;;;18.70;;
6209;SDS011;3138;52.550;13.148;2023-04-15T09:10:47;22.60;;;17.57;;
6209;SDS011;3138;52.550;13.148;2023-04-15T09:13:15;26.80;;;18.67;;
6209;SDS011;3138;52.550;13.148;2023-04-15T09:15:42;26.70;;;19.10;;
6209;SDS011;3138;52.550;13.148;2023-04-15T09:18:10;22.30;;;17.00;;
6209;SDS011;3138;52.550;13.148;2023-04-15T09:20:38;23.53;;;17.67;;
6209;SDS011;3138;52.550;13.148;2023-04-15T09:23:12;23.20;;;17.83;;
6209;SDS011;3138;52.550;13.148;2023-04-15T09:25:41;23.20;;;18.70;;
6209;SDS011;3138;52.550;13.148;2023-04-15T09:28:09;23.23;;;18.93;;
6209;SDS011;3138;52.550;13.148;2023-04-15T09:30:36;26.80;;;17.83;;
6209;SDS011;3138;52.550;13.148;2023-04-15T09:33:03;26.63;;;18.00;;
6209;SDS011;3138;52.550;13.148;2023-04-15T09:35:32;27.17;;;20.60;;
6209;SDS011;3138;52.550;13.148;2023-04-15T09:38:01;29.53;;;18.93;;
6209;SDS011;3138;52.550;13.148;2023-04-15T09:40:33;25.20;;;18.53;;
6209;SDS011;3138;52.550;13.148;2023-04-15T09:43:01;21.90;;;18.00;;
6209;SDS011;3138;52.550;13.148;2023-04-15T09:45:30;23.80;;;17.90;;
6209;SDS011;3138;52.550;13.148;2023-04-15T09:47:58;21.80;;;18.13;;
6209;SDS011;3138;52.550;13.148;2023-04-15T09:50:26;22.50;;;17.33;;
6209;SDS011;3138;52.550;13.148;2023-04-15T09:52:54;24.10;;;18.03;;
6209;SDS011;3138;52.550;13.148;2023-04-15T09:55:21;24.93;;;17.83;;
6209;SDS011;3138;52.550;13.148;2023-04-15T09:57:48;21.13;;;17.17;;
6209;SDS011;3138;52.550;13.148;2023-04-15T10:00:15;22.30;;;16.60;;
6209;SDS011;3138;52.550;13.148;2023-04-15T10:02:44;19.43;;;16.57;;
6209;SDS011;3138;52.550;13.148;2023-04-15T10:05:13;26.43;;;17.77;;
6209;SDS011;3138;52.550;13.148;2023-04-15T10:07:41;20.80;;;17.53;;
6209;SDS011;3138;52.550;13.148;2023-04-15T10:10:09;27.47;;;18.07;;
6209;SDS011;3138;52.550;13.148;2023-04-15T10:12:37;24.93;;;19.00;;
6209;SDS011;3138;52.550;13.148;2023-04-15T10:15:08;23.60;;;18.70;;
6209;SDS011;3138;52.550;13.148;2023-04-15T10:17:40;22.63;;;17.00;;
6209;SDS011;3138;52.550;13.148;2023-04-15T10:20:10;25.13;;;17.47;;
6209;SDS011;3138;52.550;13.148;2023-04-15T10:22:39;37.00;;;18.90;;
6209;SDS011;3138;52.550;13.148;2023-04-15T10:25:07;24.73;;;17.67;;
6209;SDS011;3138;52.550;13.148;2023-04-15T10:27:35;27.77;;;18.40;;
6209;SDS011;3138;52.550;13.148;2023-04-15T10:30:05;30.60;;;19.50;;
6209;SDS011;3138;52.550;13.148;2023-04-15T10:32:33;25.37;;;18.30;;
6209;SDS011;3138;52.550;13.148;2023-04-15T10:35:01;25.77;;;17.47;;
6209;SDS011;3138;52.550;13.148;2023-04-15T10:37:33;27.87;;;19.20;;
6209;SDS011;3138;52.550;13.148;2023-04-15T10:40:12;24.13;;;18.80;;
6209;SDS011;3138;52.550;13.148;2023-04-15T10:42:50;26.10;;;19.60;;
6209;SDS011;3138;52.550;13.148;2023-04-15T10:45:17;22.60;;;17.00;;
6209;SDS011;3138;52.550;13.148;2023-04-15T10:47:44;26.10;;;19.87;;
6209;SDS011;3138;52.550;13.148;2023-04-15T10:50:12;27.20;;;19.60;;
6209;SDS011;3138;52.550;13.148;2023-04-15T10:52:39;27.30;;;19.67;;
6209;SDS011;3138;52.550;13.148;2023-04-15T10:55:11;24.90;;;19.37;;
6209;SDS011;3138;52.550;13.148;2023-04-15T10:57:40;24.13;;;19.60;;
6209;SDS011;3138;52.550;13.148;2023-04-15T11:00:11;28.50;;;20.00;;
6209;SDS011;3138;52.550;13.148;2023-04-15T11:02:43;27.30;;;18.70;;
6209;SDS011;3138;52.550;13.148;2023-04-15T11:05:13;24.03;;;18.27;;
6209;SDS011;3138;52.550;13.148;2023-04-15T11:07:48;37.63;;;20.40;;
6209;SDS011;3138;52.550;13.148;2023-04-15T11:13:25;29.17;;;19.30;;
6209;SDS011;3138;52.550;13.148;2023-04-15T11:15:56;30.03;;;19.37;;
6209;SDS011;3138;52.550;13.148;2023-04-15T11:18:31;23.60;;;19.17;;
6209;SDS011;3138;52.550;13.148;2023-04-15T11:21:01;27.57;;;19.40;;
6209;SDS011;3138;52.550;13.148;2023-04-15T11:23:30;25.17;;;20.03;;
6209;SDS011;3138;52.550;13.148;2023-04-15T11:25:59;24.90;;;19.57;;
6209;SDS011;3138;52.550;13.148;2023-04-15T11:28:28;27.53;;;19.80;;
6209;SDS011;3138;52.550;13.148;2023-04-15T11:30:56;29.87;;;20.73;;
6209;SDS011;3138;52.550;13.148;2023-04-15T11:33:24;28.57;;;20.40;;
6209;SDS011;3138;52.550;13.148;2023-04-15T11:35:52;31.30;;;19.20;;
6209;SDS011;3138;52.550;13.148;2023-04-15T11:38:20;27.43;;;19.23;;
6209;SDS011;3138;52.550;13.148;2023-04-15T11:40:47;24.73;;;17.73;;
6209;SDS011;3138;52.550;13.148;2023-04-15T11:43:17;25.63;;;19.90;;
6209;SDS011;3138;52.550;13.148;2023-04-15T11:45:49;29.30;;;20.83;;
6209;SDS011;3138;52.550;13.148;2023-04-15T11:48:18;27.80;;;19.83;;
6209;SDS011;3138;52.550;13.148;2023-04-15T11:50:52;28.53;;;19.90;;
6209;SDS011;3138;52.550;13.148;2023-04-15T11:53:21;25.93;;;18.77;;
6209;SDS011;3138;52.550;13.148;2023-04-15T11:55:49;23.17;;;17.47;;
6209;SDS011;3138;52.550;13.148;2023-04-15T11:58:18;30.90;;;19.30;;
6209;SDS011;3138;52.550;13.148;2023-04-15T12:00:46;33.63;;;19.60;;
6209;SDS011;3138;52.550;13.148;2023-04-15T12:03:18;29.80;;;20.10;;
6209;SDS011;3138;52.550;13.148;2023-04-15T12:06:07;34.23;;;20.33;;
6209;SDS011;3138;52.550;13.148;2023-04-15T12:08:49;30.20;;;18.70;;
6209;SDS011;3138;52.550;13.148;2023-04-15T12:11:31;26.80;;;19.43;;
6209;SDS011;3138;52.550;13.148;2023-04-15T12:14:04;25.90;;;19.00;;
6209;SDS011;3138;52.550;13.148;2023-04-15T12:16:33;21.90;;;18.53;;
6209;SDS011;3138;52.550;13.148;2023-04-15T12:19:03;25.60;;;18.10;;
6209;SDS011;3138;52.550;13.148;2023-04-15T12:21:35;27.03;;;19.17;;
6209;SDS011;3138;52.550;13.148;2023-04-15T12:24:05;28.63;;;19.20;;
6209;SDS011;3138;52.550;13.148;2023-04-15T12:26:34;30.07;;;17.80;;
6209;SDS011;3138;52.550;13.148;2023-04-15T12:29:02;24.40;;;18.53;;
6209;SDS011;3138;52.550;13.148;2023-04-15T12:31:30;29.93;;;17.80;;
6209;SDS011;3138;52.550;13.148;2023-04-15T12:33:58;23.47;;;17.43;;
6209;SDS011;3138;52.550;13.148;2023-04-15T12:36:25;26.50;;;18.70;;
6209;SDS011;3138;52.550;13.148;2023-04-15T12:38:54;29.80;;;21.10;;
6209;SDS011;3138;52.550;13.148;2023-04-15T12:41:22;28.50;;;18.83;;
6209;SDS011;3138;52.550;13.148;2023-04-15T12:43:49;25.20;;;18.67;;
6209;SDS011;3138;52.550;13.148;2023-04-15T12:46:16;25.87;;;18.80;;
6209;SDS011;3138;52.550;13.148;2023-04-15T12:48:46;28.30;;;18.20;;
6209;SDS011;3138;52.550;13.148;2023-04-15T12:51:15;21.97;;;16.80;;
6209;SDS011;3138;52.550;13.148;2023-04-15T12:53:42;20.17;;;16.83;;
6209;SDS011;3138;52.550;13.148;2023-04-15T12:56:09;25.73;;;16.33;;
6209;SDS011;3138;52.550;13.148;2023-04-15T12:58:37;23.47;;;17.70;;
6209;SDS011;3138;52.550;13.148;2023-04-15T13:01:04;22.77;;;17.30;;
6209;SDS011;3138;52.550;13.148;2023-04-15T13:03:31;22.27;;;17.10;;
6209;SDS011;3138;52.550;13.148;2023-04-15T13:06:01;21.30;;;15.80;;
6209;SDS011;3138;52.550;13.148;2023-04-15T13:08:29;22.77;;;18.80;;
6209;SDS011;3138;52.550;13.148;2023-04-15T13:10:56;27.03;;;17.10;;
6209;SDS011;3138;52.550;13.148;2023-04-15T13:13:23;24.17;;;17.40;;
6209;SDS011;3138;52.550;13.148;2023-04-15T13:15:51;19.07;;;16.43;;
6209;SDS011;3138;52.550;13.148;2023-04-15T13:18:21;20.70;;;15.80;;
6209;SDS011;3138;52.550;13.148;2023-04-15T13:20:48;23.00;;;17.70;;
6209;SDS011;3138;52.550;13.148;2023-04-15T13:23:15;20.40;;;17.13;;
6209;SDS011;3138;52.550;13.148;2023-04-15T13:25:45;22.50;;;17.70;;
6209;SDS011;3138;52.550;13.148;2023-04-15T13:28:12;24.37;;;17.87;;
6209;SDS011;3138;52.550;13.148;2023-04-15T13:30:39;24.57;;;18.40;;
6209;SDS011;3138;52.550;13.148;2023-04-15T13:33:09;20.60;;;18.13;;
6209;SDS011;3138;52.550;13.148;2023-04-15T13:35:36;25.43;;;19.73;;
6209;SDS011;3138;52.550;13.148;2023-04-15T13:38:03;21.40;;;18.80;;
6209;SDS011;3138;52.550;13.148;2023-04-15T13:40:30;24.57;;;18.40;;
6209;SDS011;3138;52.550;13.148;2023-04-15T13:42:57;22.60;;;18.17;;
6209;SDS011;3138;52.550;13.148;2023-04-15T13:45:24;24.20;;;20.47;;
6209;SDS011;3138;52.550;13.148;2023-04-15T13:47:51;22.27;;;19.03;;
6209;SDS011;3138;52.550;13.148;2023-04-15T13:50:20;26.80;;;18.67;;
6209;SDS011;3138;52.550;13.148;2023-04-15T13:52:47;25.17;;;18.40;;
6209;SDS011;3138;52.550;13.148;2023-04-15T13:55:13;26.53;;;19.70;;
6209;SDS011;3138;52.550;13.148;2023-04-15T13:57:40;30.97;;;20.30;;
6209;SDS011;3138;52.550;13.148;2023-04-15T14:00:08;28.40;;;17.13;;
6209;SDS011;3138;52.550;13.148;2023-04-15T14:02:35;27.93;;;18.60;;
6209;SDS011;3138;52.550;13.148;2023-04-15T14:05:02;25.70;;;18.70;;
6209;SDS011;3138;52.550;13.148;2023-04-15T14:07:32;24.23;;;19.37;;
6209;SDS011;3138;52.550;13.148;2023-04-15T14:09:59;27.63;;;20.93;;
6209;SDS011;3138;52.550;13.148;2023-04-15T14:12:26;28.07;;;20.03;;
6209;SDS011;3138;52.550;13.148;2023-04-15T14:14:53;21.80;;;17.57;;
6209;SDS011;3138;52.550;13.148;2023-04-15T14:17:20;28.63;;;20.50;;
6209;SDS011;3138;52.550;13.148;2023-04-15T14:19:47;23.07;;;17.90;;
6209;SDS011;3138;52.550;13.148;2023-04-15T14:22:14;26.73;;;18.67;;
6209;SDS011;3138;52.550;13.148;2023-04-15T14:24:44;23.70;;;16.30;;
6209;SDS011;3138;52.550;13.148;2023-04-15T14:27:12;27.10;;;19.10;;
6209;SDS011;3138;52.550;13.148;2023-04-15T14:29:40;22.10;;;18.90;;
6209;SDS011;3138;52.550;13.148;2023-04-15T14:32:07;25.83;;;18.17;;
6209;SDS011;3138;52.550;13.148;2023-04-15T14:34:34;24.77;;;19.07;;
6209;SDS011;3138;52.550;13.148;2023-04-15T14:37:01;20.83;;;16.77;;
6209;SDS011;3138;52.550;13.148;2023-04-15T14:39:29;26.10;;;18.67;;